createdAt,value
2023-01-01T00:00:50.303Z,7.3
2023-01-01T00:02:57.917Z,5.8
2023-01-01T00:05:00.924Z,5.8
2023-01-01T00:07:03.950Z,8.8
2023-01-01T00:09:06.989Z,8.4
2023-01-01T00:11:10.028Z,6.4
2023-01-01T00:13:13.041Z,7.8
2023-01-01T00:17:22.185Z,7.3
2023-01-01T00:19:25.197Z,6.9
2023-01-01T00:21:28.252Z,5.6
2023-01-01T00:23:31.301Z,8
2023-01-01T00:25:34.327Z,6
2023-01-01T00:27:37.426Z,7.1
2023-01-01T00:29:40.379Z,6.1
2023-01-01T00:31:46.575Z,8.6
2023-01-01T00:33:49.538Z,7
2023-01-01T00:35:52.586Z,4.7
2023-01-01T00:38:16.463Z,4
2023-01-01T00:40:19.502Z,6.1
2023-01-01T00:42:22.524Z,6.6
2023-01-01T00:46:31.644Z,6.4
2023-01-01T00:48:34.746Z,4.6
2023-01-01T00:50:37.708Z,4.5
2023-01-01T00:52:40.747Z,5.2
2023-01-01T00:54:43.771Z,5.5
2023-01-01T00:56:46.793Z,5.5
2023-01-01T00:59:00.890Z,4.6
2023-01-01T01:00:56.031Z,5.9
2023-01-01T01:02:59.022Z,4.8
2023-01-01T01:05:01.992Z,4.9
2023-01-01T01:07:05.043Z,3.4
2023-01-01T01:09:08.074Z,3.7
2023-01-01T01:11:11.143Z,3.4
2023-01-01T01:13:17.220Z,3
2023-01-01T01:15:20.277Z,3.4
2023-01-01T01:17:23.319Z,3.5
2023-01-01T01:19:26.343Z,2
2023-01-01T01:21:29.445Z,2.5
2023-01-01T01:23:32.398Z,2.8
2023-01-01T01:25:35.428Z,1.4
2023-01-01T01:27:41.556Z,3.8
2023-01-01T01:29:44.589Z,2.2
2023-01-01T01:31:47.608Z,3.4
2023-01-01T01:34:53.759Z,0.8
2023-01-01T01:36:56.795Z,2.1
2023-01-01T01:38:59.822Z,3.1
2023-01-01T01:41:05.960Z,1.4
2023-01-01T01:43:09.012Z,2.8
2023-01-01T01:45:12.051Z,1.2
2023-01-01T01:47:15.046Z,1.5
2023-01-01T01:49:18.088Z,0.6
2023-01-01T01:51:21.074Z,3
2023-01-01T01:53:24.123Z,1.8
2023-01-01T01:55:30.295Z,1.8
2023-01-01T01:57:33.326Z,3.6
2023-01-01T01:59:36.341Z,1.1
2023-01-01T02:01:39.518Z,0.4
2023-01-01T02:03:42.429Z,0.5
2023-01-01T02:05:45.479Z,0.7
2023-01-01T02:07:48.517Z,0.6
2023-01-01T02:09:54.622Z,6.1
2023-01-01T02:11:57.707Z,0.9
2023-01-01T02:14:00.724Z,1.6
2023-01-01T02:20:09.812Z,0.4
2023-01-01T02:22:12.869Z,1.2
2023-01-01T02:24:19.001Z,0.5
2023-01-01T02:26:22.063Z,0.9
2023-01-01T02:28:25.101Z,0.4
2023-01-01T02:29:28.177Z,1.4
2023-01-01T02:31:31.264Z,0.3
2023-01-01T02:33:34.237Z,1
2023-01-01T02:35:37.269Z,0.5
2023-01-01T02:37:43.404Z,0.2
2023-01-01T02:39:46.437Z,0.5
2023-01-01T02:41:49.496Z,0
2023-01-01T02:43:52.496Z,0.1
2023-01-01T02:45:55.576Z,0.4
2023-01-01T02:47:58.562Z,0.1
2023-01-01T02:50:01.600Z,0.2
2023-01-01T02:52:07.737Z,1.4
2023-01-01T02:54:10.773Z,0.4
2023-01-01T02:56:13.816Z,0.3
2023-01-01T02:58:16.844Z,1.5
2023-01-01T03:00:19.919Z,0.5
2023-01-01T03:02:23.112Z,0.5
2023-01-01T03:04:25.955Z,0.1
2023-01-01T03:06:32.089Z,0.3
2023-01-01T03:12:41.234Z,0.4
2023-01-01T03:14:44.219Z,0.6
2023-01-01T03:16:47.260Z,0.4
2023-01-01T03:18:50.310Z,0.2
2023-01-01T03:20:56.472Z,0.1
2023-01-01T03:22:59.501Z,0.7
2023-01-01T03:25:02.529Z,0.5
2023-01-01T03:26:05.590Z,0.8
2023-01-01T03:28:08.632Z,0.7
2023-01-01T03:30:11.677Z,0.6
2023-01-01T03:32:14.702Z,0.3
2023-01-01T03:34:20.849Z,0.6
2023-01-01T03:36:23.873Z,0.4
2023-01-01T03:38:26.939Z,0.1
2023-01-01T03:40:29.929Z,0
2023-01-01T03:42:32.957Z,0.1
2023-01-01T03:44:35.995Z,0.3
2023-01-01T03:46:39.118Z,0.4
2023-01-01T03:48:45.176Z,0.1
2023-01-01T03:50:48.196Z,0.4
2023-01-01T03:52:51.213Z,1
2023-01-01T03:54:58.764Z,0.2
2023-01-01T03:56:57.289Z,0.6
2023-01-01T03:59:00.399Z,1.1
2023-01-01T04:01:03.368Z,0
2023-01-01T04:05:12.551Z,0.2
2023-01-01T04:07:15.954Z,0.1
2023-01-01T04:09:18.597Z,1.4
2023-01-01T04:11:21.640Z,0
2023-01-01T04:13:24.678Z,0
2023-01-01T04:15:27.896Z,0.8
2023-01-01T04:17:34.045Z,0.4
2023-01-01T04:19:37.064Z,0.7
2023-01-01T04:26:04.781Z,0.3
2023-01-01T04:30:13.920Z,0.5
2023-01-01T04:32:16.978Z,0.2
2023-01-01T04:34:20.029Z,1
2023-01-01T04:38:26.123Z,0.2
2023-01-01T04:40:29.120Z,0.3
2023-01-01T04:42:32.193Z,0.3
2023-01-01T04:44:38.344Z,0.5
2023-01-01T04:50:47.429Z,0.1
2023-01-01T04:52:50.484Z,0.1
2023-01-01T04:54:53.508Z,0
2023-01-01T04:56:56.548Z,0.1
2023-01-01T04:59:02.681Z,0.2
2023-01-01T05:01:05.916Z,0
2023-01-01T05:03:08.819Z,0.4
2023-01-01T05:05:11.846Z,1.2
2023-01-01T05:07:14.855Z,0.4
2023-01-01T05:09:17.916Z,0.4
2023-01-01T05:11:21.008Z,0.8
2023-01-01T05:13:27.133Z,0
2023-01-01T05:15:30.182Z,0.4
2023-01-01T05:17:33.213Z,0.4
2023-01-01T05:18:36.286Z,0.5
2023-01-01T05:20:39.332Z,0.1
2023-01-01T05:22:42.392Z,1.7
2023-01-01T05:24:45.432Z,0.3
2023-01-01T05:26:51.553Z,0.9
2023-01-01T05:28:54.579Z,1.3
2023-01-01T05:30:57.635Z,1.1
2023-01-01T05:33:00.702Z,0.2
2023-01-01T05:35:03.728Z,0.2
2023-01-01T05:37:06.770Z,0.6
2023-01-01T05:39:10.129Z,0.3
2023-01-01T05:41:15.940Z,0.5
2023-01-01T05:43:18.989Z,0.4
2023-01-01T05:45:22.060Z,0.3
2023-01-01T05:47:29.700Z,0.9
2023-01-01T05:49:28.155Z,0.2
2023-01-01T05:53:34.216Z,0.4
2023-01-01T05:55:41.941Z,0.4
2023-01-01T05:57:44.950Z,0.1
2023-01-01T05:59:48.017Z,0.6
2023-01-01T06:01:51.182Z,0.5
2023-01-01T06:03:54.095Z,0.1
2023-01-01T06:05:57.103Z,0.2
2023-01-01T06:08:00.162Z,0.1
2023-01-01T06:10:06.323Z,0.3
2023-01-01T06:12:09.369Z,0.2
2023-01-01T06:14:12.419Z,0
2023-01-01T06:15:15.494Z,0.3
2023-01-01T06:17:18.519Z,0
2023-01-01T06:19:21.562Z,0
2023-01-01T06:21:24.611Z,0.1
2023-01-01T06:23:30.752Z,0
2023-01-01T06:25:33.820Z,0.2
2023-01-01T06:27:36.844Z,0.1
2023-01-01T06:29:39.875Z,0.7
2023-01-01T06:31:42.919Z,0
2023-01-01T06:33:45.958Z,0.1
2023-01-01T06:35:49.018Z,0
2023-01-01T06:37:55.179Z,0
2023-01-01T06:42:01.271Z,0
2023-01-01T06:44:04.289Z,0.1
2023-01-01T06:46:07.431Z,0.3
2023-01-01T06:48:10.379Z,0
2023-01-01T06:50:13.417Z,0.4
2023-01-01T06:52:19.554Z,0.1
2023-01-01T06:54:22.611Z,0
2023-01-01T07:02:34.959Z,0.6
2023-01-01T07:04:37.811Z,0
2023-01-01T07:06:43.981Z,0.7
2023-01-01T07:08:47.007Z,0
2023-01-01T07:10:50.048Z,0.3
2023-01-01T07:11:53.115Z,0.3
2023-01-01T07:13:56.157Z,0.1
2023-01-01T07:15:59.277Z,0
2023-01-01T07:18:02.244Z,0.1
2023-01-01T07:20:08.405Z,0.2
2023-01-01T07:22:11.440Z,0
2023-01-01T07:24:14.499Z,0.5
2023-01-01T07:26:17.522Z,0
2023-01-01T07:28:20.572Z,0
2023-01-01T07:30:23.611Z,0
2023-01-01T07:32:26.669Z,0
2023-01-01T07:34:32.812Z,0.2
2023-01-01T07:36:35.856Z,0
2023-01-01T07:40:41.953Z,0
2023-01-01T07:42:44.965Z,0.1
2023-01-01T07:44:48.002Z,0.2
2023-01-01T07:46:51.091Z,0.1
2023-01-01T07:48:57.205Z,0
2023-01-01T07:51:00.282Z,0.2
2023-01-01T07:53:03.381Z,0
2023-01-01T08:01:16.064Z,0
2023-01-01T08:03:22.165Z,0.4
2023-01-01T08:05:27.194Z,0
2023-01-01T08:07:28.168Z,0.2
2023-01-01T08:09:55.982Z,0
2023-01-01T08:11:59.005Z,0.1
2023-01-01T08:14:02.155Z,0.7
2023-01-01T08:18:11.553Z,0
2023-01-01T08:20:14.703Z,0.2
2023-01-01T08:22:17.832Z,0
2023-01-01T08:24:20.983Z,0.4
2023-01-01T08:26:24.144Z,0.1
2023-01-01T08:28:27.293Z,0
2023-01-01T08:30:33.558Z,0
2023-01-01T08:32:36.677Z,0
2023-01-01T08:34:39.832Z,0.1
2023-01-01T08:36:42.990Z,0.1
2023-01-01T08:38:46.130Z,0
2023-01-01T08:40:49.275Z,1.4
2023-01-01T08:42:52.391Z,0.4
2023-01-01T08:44:58.762Z,0.3
2023-01-01T08:47:01.975Z,0
2023-01-01T08:49:05.080Z,0.1
2023-01-01T08:51:08.194Z,0
2023-01-01T08:53:11.383Z,0
2023-01-01T08:55:14.474Z,0
2023-01-01T08:57:17.625Z,0.1
2023-01-01T09:01:27.187Z,0.2
2023-01-01T09:03:30.339Z,0
2023-01-01T09:04:33.479Z,0
2023-01-01T09:06:36.619Z,0.1
2023-01-01T09:08:40.453Z,0
2023-01-01T09:10:43.471Z,0.3
2023-01-01T09:12:49.824Z,0.4
2023-01-01T09:16:56.125Z,0.5
2023-01-01T09:18:59.271Z,0
2023-01-01T09:21:02.397Z,0
2023-01-01T09:23:05.995Z,0
2023-01-01T09:25:08.702Z,0.1
2023-01-01T09:27:15.074Z,0.4
2023-01-01T09:29:18.203Z,0
2023-01-01T09:31:21.399Z,0.2
2023-01-01T09:33:24.526Z,0.7
2023-01-01T09:35:27.685Z,0.3
2023-01-01T09:37:30.814Z,0.9
2023-01-01T09:39:33.998Z,0.1
2023-01-01T09:41:40.352Z,0
2023-01-01T09:43:43.495Z,1.3
2023-01-01T09:45:46.669Z,0.4
2023-01-01T09:47:49.781Z,0.5
2023-01-01T09:51:58.053Z,0.1
2023-01-01T09:56:05.600Z,0.3
2023-01-01T09:58:08.731Z,0.1
2023-01-01T10:00:11.884Z,0.2
2023-01-01T10:01:15.192Z,0.2
2023-01-01T10:03:18.093Z,0.1
2023-01-01T10:05:21.138Z,0.1
2023-01-01T10:07:24.302Z,0.3
2023-01-01T10:09:30.553Z,0.2
2023-01-01T10:13:36.621Z,0.5
2023-01-01T10:15:39.682Z,0.3
2023-01-01T10:19:45.866Z,0
2023-01-01T10:21:48.913Z,0.1
2023-01-01T10:23:55.564Z,0.8
2023-01-01T10:25:58.699Z,0.4
2023-01-01T10:28:01.729Z,0.7
2023-01-01T10:30:05.175Z,0
2023-01-01T10:32:07.940Z,0.1
2023-01-01T10:34:10.950Z,0.2
2023-01-01T10:36:13.998Z,0.4
2023-01-01T10:38:20.204Z,0.1
2023-01-01T10:40:23.205Z,0.3
2023-01-01T10:42:26.251Z,0.3
2023-01-01T10:44:29.285Z,0.1
2023-01-01T10:46:32.657Z,0.3
2023-01-01T10:48:35.388Z,0.3
2023-01-01T10:50:38.440Z,0
2023-01-01T10:52:44.562Z,0.2
2023-01-01T10:54:47.612Z,0.5
2023-01-01T10:56:50.662Z,0.2
2023-01-01T10:57:53.735Z,1
2023-01-01T10:59:56.756Z,0.9
2023-01-01T11:04:02.843Z,0.1
2023-01-01T11:06:08.983Z,0.7
2023-01-01T11:08:12.034Z,0.1
2023-01-01T11:10:15.087Z,0.4
2023-01-01T11:12:45.922Z,0.1
2023-01-01T11:14:21.146Z,0.1
2023-01-01T11:16:24.292Z,0.4
2023-01-01T11:18:27.257Z,0.6
2023-01-01T11:20:33.438Z,0.9
2023-01-01T11:22:36.461Z,0.3
2023-01-01T11:24:39.498Z,0.3
2023-01-01T11:26:42.539Z,0.2
2023-01-01T11:28:45.583Z,0.3
2023-01-01T11:30:48.662Z,0.2
2023-01-01T11:32:55.403Z,0.3
2023-01-01T11:34:57.829Z,0.4
2023-01-01T11:37:00.894Z,0.7
2023-01-01T11:39:03.927Z,0.2
2023-01-01T11:41:06.985Z,0.3
2023-01-01T11:45:13.059Z,0.3
2023-01-01T11:47:16.087Z,0.4
2023-01-01T11:49:22.239Z,0.7
2023-01-01T11:55:59.369Z,0.1
2023-01-01T11:58:02.394Z,0.2
2023-01-01T12:00:05.480Z,0.1
2023-01-01T12:02:11.663Z,0.7
2023-01-01T12:04:14.713Z,1.1
2023-01-01T12:08:20.767Z,0.4
2023-01-01T12:10:23.813Z,0.5
2023-01-01T12:12:26.840Z,0.5
2023-01-01T12:14:32.674Z,0.5
2023-01-01T12:16:36.045Z,1.5
2023-01-01T12:18:39.083Z,1.1
2023-01-01T12:20:42.129Z,0.1
2023-01-01T12:22:45.165Z,0.2
2023-01-01T12:24:48.242Z,1
2023-01-01T12:26:51.255Z,0.7
2023-01-01T12:28:54.304Z,0.4
2023-01-01T12:31:00.512Z,0.8
2023-01-01T12:39:12.621Z,0.9
2023-01-01T12:41:15.671Z,0.3
2023-01-01T12:43:18.713Z,0.5
2023-01-01T12:45:30.716Z,0.4
2023-01-01T12:47:27.928Z,0.7
2023-01-01T12:49:30.985Z,0.3
2023-01-01T12:50:34.052Z,1.5
2023-01-01T12:52:37.105Z,0.5
2023-01-01T12:54:40.167Z,1.2
2023-01-01T12:56:43.213Z,0.4
2023-01-01T12:58:49.334Z,0.8
2023-01-01T13:00:52.393Z,0.9
2023-01-01T13:02:55.599Z,0.6
2023-01-01T13:04:58.454Z,0.5
2023-01-01T13:07:01.530Z,0.8
2023-01-01T13:09:04.566Z,0.1
2023-01-01T13:11:07.576Z,0.5
2023-01-01T13:13:13.715Z,1.7
2023-01-01T13:15:16.774Z,1.4
2023-01-01T13:17:19.845Z,0.9
2023-01-01T13:19:22.861Z,1.7
2023-01-01T13:21:25.883Z,0.4
2023-01-01T13:23:28.943Z,0.5
2023-01-01T13:25:31.971Z,0.6
2023-01-01T13:27:38.144Z,0.7
2023-01-01T13:29:41.171Z,0.3
2023-01-01T13:31:44.254Z,0.6
2023-01-01T13:35:50.319Z,0.7
2023-01-01T13:37:53.350Z,0.2
2023-01-01T13:39:56.396Z,1
2023-01-01T13:42:02.541Z,1
2023-01-01T13:44:05.625Z,1.4
2023-01-01T13:46:14.001Z,0.4
2023-01-01T13:47:11.780Z,0.8
2023-01-01T13:49:14.801Z,0.3
2023-01-01T13:51:40.010Z,0.7
2023-01-01T13:53:20.858Z,1.8
2023-01-01T13:55:27.024Z,1.9
2023-01-01T13:57:30.085Z,0.1
2023-01-01T13:59:33.134Z,1.9
2023-01-01T14:01:36.441Z,1.4
2023-01-01T14:03:39.204Z,0.7
2023-01-01T14:05:42.240Z,1
2023-01-01T14:07:52.092Z,0.9
2023-01-01T14:09:51.463Z,3.2
2023-01-01T14:11:54.491Z,0.4
2023-01-01T14:13:57.564Z,0.5
2023-01-01T14:16:00.650Z,0.5
2023-01-01T14:18:03.639Z,0.6
2023-01-01T14:20:06.684Z,0.2
2023-01-01T14:22:09.726Z,0.7
2023-01-01T14:24:15.888Z,0.7
2023-01-01T14:28:22.010Z,1.5
2023-01-01T14:30:25.052Z,1.1
2023-01-01T14:34:31.128Z,0.8
2023-01-01T14:38:40.322Z,1
2023-01-01T14:43:49.479Z,2.2
2023-01-01T14:45:52.640Z,1
2023-01-01T14:47:55.588Z,1.5
2023-01-01T14:49:58.635Z,0.6
2023-01-01T14:52:04.800Z,0.3
2023-01-01T14:54:07.859Z,0.8
2023-01-01T14:56:10.903Z,0.3
2023-01-01T14:58:13.927Z,1.1
2023-01-01T15:00:16.991Z,1.2
2023-01-01T15:02:20.197Z,0.7
2023-01-01T15:04:23.135Z,1.5
2023-01-01T15:06:29.304Z,1.9
2023-01-01T15:08:32.322Z,1.9
2023-01-01T15:10:35.394Z,0.6
2023-01-01T15:12:38.421Z,2.2
2023-01-01T15:14:41.452Z,2
2023-01-01T15:16:44.612Z,2.5
2023-01-01T15:18:47.650Z,1.2
2023-01-01T15:20:54.036Z,3.3
2023-01-01T15:22:57.069Z,0.9
2023-01-01T15:25:00.183Z,0.3
2023-01-01T15:27:03.160Z,1.5
2023-01-01T15:29:06.202Z,2
2023-01-01T15:31:09.350Z,1.8
2023-01-01T15:33:12.504Z,1
2023-01-01T15:35:18.748Z,1.7
2023-01-01T15:37:21.773Z,1.2
2023-01-01T15:39:24.942Z,2.3
2023-01-01T15:43:51.836Z,0.8
2023-01-01T15:45:55.028Z,5.5
2023-01-01T15:48:01.372Z,4.1
2023-01-01T15:50:04.529Z,3.1
2023-01-01T15:52:07.614Z,3.1
2023-01-01T15:54:10.768Z,6.4
2023-01-01T15:56:13.908Z,3.2
2023-01-01T15:58:17.054Z,2.3
2023-01-01T16:00:20.229Z,3.8
2023-01-01T16:02:26.562Z,1.3
2023-01-01T16:04:29.634Z,2.7
2023-01-01T16:06:32.532Z,3.8
2023-01-01T16:08:35.595Z,3
2023-01-01T16:10:38.600Z,2.8
2023-01-01T16:12:41.619Z,2.7
2023-01-01T16:14:44.655Z,1.3
2023-01-01T16:16:50.929Z,2.7
2023-01-01T16:18:53.872Z,4.5
2023-01-01T16:20:56.914Z,1.4
2023-01-01T16:22:59.948Z,2.5
2023-01-01T16:25:03.000Z,1.7
2023-01-01T16:27:06.065Z,1.3
2023-01-01T16:29:09.095Z,2.7
2023-01-01T16:31:15.241Z,3.8
2023-01-01T16:33:18.253Z,2.4
2023-01-01T16:35:21.318Z,3.1
2023-01-01T16:40:35.782Z,1.4
2023-01-01T16:48:45.768Z,2.1
2023-01-01T16:50:48.784Z,1.8
2023-01-01T16:52:51.838Z,2.3
2023-01-01T16:54:54.878Z,1.8
2023-01-01T17:05:13.227Z,1.2
2023-01-01T17:07:16.246Z,1.1
2023-01-01T17:09:19.310Z,2.1
2023-01-01T17:11:22.362Z,2.1
2023-01-01T17:13:28.487Z,2.8
2023-01-01T17:15:31.598Z,2
2023-01-01T17:17:34.576Z,2.9
2023-01-01T17:19:37.619Z,2.1
2023-01-01T17:21:40.681Z,4.5
2023-01-01T17:23:43.718Z,1.4
2023-01-01T17:25:46.865Z,2.3
2023-01-01T17:27:53.127Z,2.2
2023-01-01T17:29:56.155Z,1.8
2023-01-01T17:31:59.326Z,2
2023-01-01T17:39:11.635Z,1.2
2023-01-01T17:43:20.810Z,1.6
2023-01-01T17:45:25.432Z,1.7
2023-01-01T17:47:32.608Z,1.9
2023-01-01T17:49:31.475Z,1.3
2023-01-01T17:51:34.520Z,2
2023-01-01T17:53:37.596Z,3.4
2023-01-01T17:55:43.833Z,1.8
2023-01-01T17:57:46.884Z,1.9
2023-01-01T17:59:49.924Z,2.2
2023-01-01T18:01:53.094Z,2
2023-01-01T18:03:56.014Z,2.2
2023-01-01T18:05:59.066Z,3.5
2023-01-01T18:08:02.095Z,5.7
2023-01-01T18:10:08.244Z,4.5
2023-01-01T18:12:11.277Z,3.6
2023-01-01T18:14:18.354Z,1.2
2023-01-01T18:16:17.505Z,2.4
2023-01-01T18:18:20.596Z,3.2
2023-01-01T18:20:23.762Z,2.3
2023-01-01T18:22:26.872Z,2.2
2023-01-01T18:24:33.244Z,3.8
2023-01-01T18:26:36.407Z,6.5
2023-01-01T18:28:39.534Z,4.5
2023-01-01T18:29:42.726Z,3.1
2023-01-01T18:31:45.923Z,3.7
2023-01-01T18:33:49.040Z,5.8
2023-01-01T18:35:52.185Z,3.7
2023-01-01T18:37:58.524Z,3.2
2023-01-01T18:40:01.669Z,3.9
2023-01-01T18:42:04.791Z,3.9
2023-01-01T18:46:11.189Z,3.3
2023-01-01T18:48:14.221Z,4.4
2023-01-01T18:50:17.400Z,4.2
2023-01-01T18:52:23.760Z,3.6
2023-01-01T18:54:26.909Z,2.9
2023-01-01T18:58:33.161Z,2.6
2023-01-01T19:02:39.619Z,3.1
2023-01-01T19:04:42.588Z,2.3
2023-01-01T19:06:48.949Z,4.8
2023-01-01T19:08:52.100Z,2.8
2023-01-01T19:10:55.232Z,2.3
2023-01-01T19:12:58.422Z,3.8
2023-01-01T19:15:01.511Z,3
2023-01-01T19:17:04.636Z,2.9
2023-01-01T19:19:07.790Z,2.7
2023-01-01T19:21:14.152Z,3.6
2023-01-01T19:23:17.293Z,3.2
2023-01-01T19:25:20.445Z,4.8
2023-01-01T19:27:53.477Z,4.6
2023-01-01T19:29:53.350Z,4.4
2023-01-01T19:31:56.607Z,5.1
2023-01-01T19:34:02.841Z,3.5
2023-01-01T19:36:05.972Z,3.1
2023-01-01T19:38:09.127Z,1.4
2023-01-01T19:40:12.237Z,2.3
2023-01-01T19:42:15.362Z,1.9
2023-01-01T19:44:22.969Z,1.7
2023-01-01T19:46:21.681Z,2.3
2023-01-01T19:48:28.008Z,1.4
2023-01-01T19:50:31.165Z,2
2023-01-01T19:52:34.291Z,2.5
2023-01-01T19:54:37.419Z,1.9
2023-01-01T19:56:40.545Z,1.5
2023-01-01T19:58:43.669Z,2.3
2023-01-01T20:00:46.932Z,2.1
2023-01-01T20:02:53.317Z,2.1
2023-01-01T20:04:56.272Z,2.2
2023-01-01T20:09:02.541Z,1.5
2023-01-01T20:11:05.671Z,3.1
2023-01-01T20:13:08.844Z,1.4
2023-01-01T20:15:11.963Z,2.2
2023-01-01T20:17:18.277Z,4
2023-01-01T20:19:21.427Z,1.2
2023-01-01T20:21:26.635Z,1.5
2023-01-01T20:24:30.853Z,2.2
2023-01-01T20:26:33.992Z,3
2023-01-01T20:28:37.139Z,1.3
2023-01-01T20:30:43.473Z,2.6
2023-01-01T20:32:46.611Z,2.9
2023-01-01T20:34:49.747Z,4.3
2023-01-01T20:36:52.889Z,2.1
2023-01-01T20:38:56.029Z,3.3
2023-01-01T20:43:02.308Z,2.3
2023-01-01T20:45:08.619Z,2.8
2023-01-01T20:47:11.785Z,1.9
2023-01-01T20:53:21.186Z,1.2
2023-01-01T20:55:24.407Z,0.8
2023-01-01T20:59:36.348Z,1.7
2023-01-01T21:01:37.126Z,2.3
2023-01-01T21:03:40.146Z,2.9
2023-01-01T21:05:43.314Z,1.5
2023-01-01T21:07:46.439Z,2
2023-01-01T21:13:58.994Z,0.5
2023-01-01T21:16:02.165Z,0.9
2023-01-01T21:18:05.313Z,0.6
2023-01-01T21:19:08.492Z,0.4
2023-01-01T21:21:11.605Z,1
2023-01-01T21:23:14.737Z,1.6
2023-01-01T21:25:49.674Z,2.5
2023-01-01T21:27:24.304Z,2.1
2023-01-01T21:29:27.337Z,1
2023-01-01T21:31:30.540Z,1.7
2023-01-01T21:45:55.650Z,0.8
2023-01-01T21:47:58.751Z,2.5
2023-01-01T21:50:01.923Z,1.6
2023-01-01T21:52:05.065Z,1.4
2023-01-01T21:54:08.186Z,1
2023-01-01T21:58:21.208Z,2.6
2023-01-01T22:04:27.063Z,1.8
2023-01-01T22:06:30.200Z,1.5
2023-01-01T22:08:33.347Z,1.8
2023-01-01T22:10:39.679Z,1.9
2023-01-01T22:12:42.837Z,1.3
2023-01-01T22:14:46.859Z,2
2023-01-01T22:15:50.034Z,2.1
2023-01-01T22:17:53.157Z,2
2023-01-01T22:19:56.281Z,3.2
2023-01-01T22:21:59.460Z,1.3
2023-01-01T22:24:05.763Z,2.8
2023-01-01T22:26:08.950Z,3.7
2023-01-01T22:28:12.026Z,1.7
2023-01-01T22:30:15.128Z,2.6
2023-01-01T22:32:18.272Z,3
2023-01-01T22:34:21.404Z,3
2023-01-01T22:38:30.895Z,3
2023-01-01T22:40:34.030Z,4.1
2023-01-01T22:42:37.176Z,3
2023-01-01T22:44:40.282Z,1.9
2023-01-01T22:46:43.472Z,1.4
2023-01-01T22:48:48.057Z,2.8
2023-01-01T22:50:49.710Z,1.6
2023-01-01T22:52:56.068Z,1.4
2023-01-01T22:54:59.202Z,0.8
2023-01-01T22:57:02.317Z,2.7
2023-01-01T22:59:05.433Z,2.8
2023-01-01T23:01:08.685Z,2.7
2023-01-01T23:03:11.928Z,1.9
2023-01-01T23:05:14.848Z,2.2
2023-01-01T23:07:21.185Z,2.8
2023-01-01T23:09:24.323Z,2.3
2023-01-01T23:11:27.480Z,2.9
2023-01-01T23:13:51.155Z,3.1
2023-01-01T23:15:56.016Z,2.6
2023-01-01T23:17:57.405Z,2.5
2023-01-01T23:20:03.788Z,5
2023-01-01T23:22:06.909Z,3
2023-01-01T23:24:10.036Z,2.7
2023-01-01T23:26:13.166Z,3.2
2023-01-01T23:28:16.327Z,3.2
2023-01-01T23:30:19.488Z,2.6
2023-01-01T23:32:22.619Z,2.6
2023-01-01T23:34:28.912Z,3.1
2023-01-01T23:36:32.054Z,3.5
2023-01-01T23:38:35.213Z,2.7
2023-01-01T23:40:39.899Z,3.3
2023-01-01T23:42:42.976Z,4.1
2023-01-01T23:44:46.125Z,2.2
2023-01-01T23:46:49.304Z,3.7
2023-01-01T23:48:55.582Z,3.3
2023-01-01T23:50:58.720Z,3.7
2023-01-01T23:53:01.836Z,2.4
2023-01-01T23:55:04.970Z,2.8
2023-01-01T23:57:08.113Z,3.6
2023-01-01T23:59:11.260Z,4
